Terminal Aerodrome Forecast
Issued by NWS

Home | Current Version | Previous Version | Graphics & Text | Print | Product List | Glossary On
Versions: 1 2 3 4 5 6 7 8 9 10 11 12 13 14 15 16
000
FTUS43 KMPX 010700 AAA
TAFRWF
TAF AMD
KRWF 010759Z 0108/0206 30007KT P6SM VCSH SCT007 BKN100
      TEMPO 0108/0111 3SM -SHRA BKN007
     FM011100 30005KT 6SM BR SCT004 BKN006
     FM011400 31010KT P6SM SCT050
     FM012300 28007KT P6SM BKN100=

USA.gov is the U.S. government's official web portal to all federal, state and local government web resources and services.